Time;durP1;ratioP1;P1;durP2;ratioP2;P2;SDS_P1;SDS_P2;PMS_P1;PMS_P2;Temp;Humidity;BMP_temperature;BMP_pressure;BME280_temperature;BME280_humidity;BME280_pressure;Samples;Min_cycle;Max_cycle;Signal;HPM_P1;HPM_P2
2021/06/17 00:02:24;;;;;;;9.00;8.20;;;23.00;71.40;;;;;;5017149;28;20811;-49
2021/06/17 00:04:50;;;;;;;9.30;8.53;;;23.00;71.50;;;;;;5005654;28;20452;-49
2021/06/17 00:07:17;;;;;;;9.90;8.13;;;22.90;71.30;;;;;;5021202;28;20498;-49
2021/06/17 00:09:44;;;;;;;10.00;8.13;;;23.00;71.20;;;;;;5020806;28;20459;-49
2021/06/17 00:12:11;;;;;;;10.20;7.80;;;22.90;71.30;;;;;;5007818;28;20447;-49
2021/06/17 00:14:38;;;;;;;10.73;7.63;;;22.90;71.20;;;;;;5006151;28;21125;-49
2021/06/17 00:17:07;;;;;;;8.47;7.67;;;22.90;71.60;;;;;;5020772;28;20462;-49
2021/06/17 00:19:34;;;;;;;11.00;7.73;;;22.80;71.60;;;;;;5018020;28;20943;-49
2021/06/17 00:22:01;;;;;;;10.90;8.90;;;22.80;71.50;;;;;;5009547;28;20454;-49
2021/06/17 00:24:28;;;;;;;9.90;9.00;;;22.80;71.70;;;;;;5024155;28;20469;-49
2021/06/17 00:26:55;;;;;;;9.97;8.97;;;22.80;71.80;;;;;;5019658;28;20486;-49
2021/06/17 00:29:22;;;;;;;8.87;8.10;;;22.80;71.90;;;;;;5021635;28;20483;-49
2021/06/17 00:31:49;;;;;;;11.23;8.00;;;22.70;71.70;;;;;;5006814;28;20457;-49
2021/06/17 00:34:16;;;;;;;8.90;8.00;;;22.70;71.70;;;;;;5018282;28;20468;-49
2021/06/17 00:36:42;;;;;;;9.57;8.73;;;22.60;71.80;;;;;;5005684;28;20455;-49
2021/06/17 00:39:10;;;;;;;9.37;8.37;;;22.60;71.90;;;;;;5019511;28;20809;-49
2021/06/17 00:41:38;;;;;;;9.33;8.43;;;22.60;71.90;;;;;;5020684;28;20462;-49
2021/06/17 00:44:05;;;;;;;11.23;8.20;;;22.60;72.00;;;;;;5019945;28;20555;-49
2021/06/17 00:46:32;;;;;;;9.90;8.67;;;22.50;72.00;;;;;;5007926;28;20945;-49
2021/06/17 00:48:59;;;;;;;10.80;8.27;;;22.50;72.00;;;;;;5020376;28;20480;-49
2021/06/17 00:51:26;;;;;;;9.77;8.70;;;22.40;71.80;;;;;;5024136;28;20887;-49
2021/06/17 00:53:52;;;;;;;8.40;7.57;;;22.40;71.80;;;;;;5020229;28;20444;-49
2021/06/17 00:56:19;;;;;;;9.90;8.90;;;22.30;72.00;;;;;;5010634;28;20474;-49
2021/06/17 00:58:46;;;;;;;9.20;8.30;;;22.30;72.10;;;;;;5030955;28;20459;-49
2021/06/17 01:01:13;;;;;;;10.40;8.60;;;22.30;72.20;;;;;;5021717;28;20459;-49
2021/06/17 01:03:40;;;;;;;9.03;8.20;;;22.30;72.30;;;;;;5021622;28;20828;-49
2021/06/17 01:06:07;;;;;;;10.10;8.97;;;22.20;72.40;;;;;;5024803;28;20812;-49
2021/06/17 01:09:04;;;;;;;10.10;7.80;;;22.20;72.50;;;;;;5022404;28;20855;-49
2021/06/17 01:12:04;;;;;;;9.50;8.60;;;22.20;72.70;;;;;;5022699;28;20471;-49
2021/06/17 01:14:41;;;;;;;9.37;8.37;;;22.10;72.70;;;;;;5006783;28;20459;-49
2021/06/17 01:17:12;;;;;;;9.30;8.50;;;22.10;72.70;;;;;;5027482;28;20955;-49
2021/06/17 01:20:07;;;;;;;9.60;8.60;;;22.10;72.70;;;;;;5023452;28;20479;-49
2021/06/17 01:22:53;;;;;;;8.33;7.53;;;22.00;72.80;;;;;;5023005;28;20811;-49
2021/06/17 01:25:57;;;;;;;10.10;9.10;;;22.00;72.90;;;;;;5023031;28;20455;-49
2021/06/17 01:28:25;;;;;;;9.30;7.80;;;22.00;72.90;;;;;;5024503;28;20839;-49
2021/06/17 01:31:15;;;;;;;8.73;7.80;;;21.90;73.00;;;;;;5022253;28;20959;-49
2021/06/17 01:33:47;;;;;;;8.90;8.10;;;21.90;73.00;;;;;;5021387;28;20472;-49
2021/06/17 01:36:20;;;;;;;8.70;7.90;;;21.90;73.20;;;;;;5024024;28;20493;-49
2021/06/17 01:38:51;;;;;;;8.80;7.73;;;21.90;73.20;;;;;;5006225;28;20468;-49
2021/06/17 01:41:24;;;;;;;10.30;9.23;;;21.80;73.20;;;;;;5024593;28;20837;-49
2021/06/17 01:43:52;;;;;;;12.83;7.60;;;21.90;73.30;;;;;;5010854;28;20467;-49
2021/06/17 01:46:20;;;;;;;9.93;9.00;;;21.80;73.20;;;;;;5022054;28;20470;-49
2021/06/17 01:48:52;;;;;;;11.63;10.43;;;21.80;73.20;;;;;;5021087;28;21032;-49
2021/06/17 01:51:20;;;;;;;9.57;8.57;;;21.80;73.20;;;;;;5021573;28;20459;-49
2021/06/17 01:53:49;;;;;;;10.30;9.40;;;21.80;73.20;;;;;;5025170;28;20470;-49
2021/06/17 01:56:22;;;;;;;10.40;8.73;;;21.80;73.30;;;;;;5007298;28;20475;-49
2021/06/17 01:58:55;;;;;;;8.97;8.17;;;21.70;73.30;;;;;;5023139;28;20468;-49
2021/06/17 02:01:25;;;;;;;9.00;8.20;;;21.70;73.30;;;;;;5019579;28;21022;-49
2021/06/17 02:03:53;;;;;;;8.53;7.73;;;21.70;73.30;;;;;;5020745;28;20468;-49
2021/06/17 02:06:20;;;;;;;8.50;7.70;;;21.60;73.40;;;;;;5022176;28;20507;-49
2021/06/17 02:08:51;;;;;;;11.57;9.00;;;21.60;73.40;;;;;;5018468;28;20515;-49
2021/06/17 02:11:20;;;;;;;9.53;8.13;;;21.60;73.50;;;;;;5007670;28;20831;-49
2021/06/17 02:13:49;;;;;;;9.23;8.30;;;21.60;73.40;;;;;;5023663;28;20817;-49
2021/06/17 02:16:18;;;;;;;8.80;8.00;;;21.60;73.50;;;;;;5009048;28;20466;-49
2021/06/17 02:18:47;;;;;;;9.43;8.60;;;21.50;73.60;;;;;;5024850;28;20558;-49
2021/06/17 02:21:15;;;;;;;9.77;8.77;;;21.50;73.50;;;;;;5024320;28;20460;-49
2021/06/17 02:23:47;;;;;;;9.60;8.70;;;21.50;73.60;;;;;;5010240;28;20455;-49
2021/06/17 02:26:14;;;;;;;12.47;9.90;;;21.40;73.60;;;;;;5006029;28;20460;-49
2021/06/17 02:28:44;;;;;;;11.33;9.40;;;21.40;73.60;;;;;;5023181;28;21005;-49
2021/06/17 02:31:14;;;;;;;9.77;8.13;;;21.40;73.70;;;;;;5021792;28;21107;-49
2021/06/17 02:33:41;;;;;;;9.40;8.40;;;21.40;73.60;;;;;;5022140;28;20463;-49
2021/06/17 02:36:12;;;;;;;9.50;8.57;;;21.40;73.60;;;;;;5020942;28;20472;-49
2021/06/17 02:38:41;;;;;;;11.80;8.60;;;21.40;73.80;;;;;;5004535;28;20960;-49
2021/06/17 02:41:11;;;;;;;11.10;8.43;;;21.40;73.70;;;;;;5024050;28;21002;-49
2021/06/17 02:43:41;;;;;;;9.13;8.10;;;21.40;73.70;;;;;;5023314;28;20460;-49
2021/06/17 02:46:08;;;;;;;9.30;8.40;;;21.40;73.70;;;;;;5022719;28;21006;-48
2021/06/17 02:48:35;;;;;;;10.00;8.73;;;21.40;73.70;;;;;;5023835;28;21060;-48
2021/06/17 02:51:02;;;;;;;8.83;8.03;;;21.40;73.60;;;;;;5023843;28;20470;-47
2021/06/17 02:53:29;;;;;;;8.67;7.70;;;21.40;73.70;;;;;;5023134;28;20463;-47
2021/06/17 02:55:58;;;;;;;13.10;7.60;;;21.30;73.90;;;;;;5007188;28;20462;-49
2021/06/17 02:58:49;;;;;;;8.53;7.73;;;21.30;73.90;;;;;;5005972;28;20828;-49
2021/06/17 03:01:26;;;;;;;10.07;9.13;;;21.20;73.90;;;;;;5019880;28;20468;-49
2021/06/17 03:04:08;;;;;;;11.00;8.70;;;21.20;73.90;;;;;;5018126;28;20865;-49
2021/06/17 03:06:39;;;;;;;8.70;7.87;;;21.20;74.00;;;;;;5018934;28;20460;-49
2021/06/17 03:09:21;;;;;;;10.50;9.10;;;21.10;74.10;;;;;;5024062;28;20494;-49
2021/06/17 03:11:51;;;;;;;9.60;8.80;;;21.10;74.30;;;;;;5024054;28;20852;-50
2021/06/17 03:14:28;;;;;;;8.47;6.93;;;21.10;74.20;;;;;;5022603;28;20956;-49
2021/06/17 03:16:57;;;;;;;10.87;8.30;;;21.10;74.20;;;;;;5021314;28;20489;-50
2021/06/17 03:19:26;;;;;;;9.47;8.43;;;21.00;74.30;;;;;;5008112;28;20518;-49
2021/06/17 03:21:59;;;;;;;9.07;8.17;;;21.00;74.60;;;;;;5015407;28;21000;-49
2021/06/17 03:24:30;;;;;;;9.30;8.40;;;21.00;74.70;;;;;;5019748;28;20852;-49
2021/06/17 03:27:01;;;;;;;10.33;8.53;;;21.00;74.80;;;;;;5020339;28;20456;-49
2021/06/17 03:29:37;;;;;;;12.17;8.67;;;20.90;74.80;;;;;;5019781;28;20484;-49
2021/06/17 03:32:06;;;;;;;10.43;8.70;;;20.90;74.90;;;;;;5009116;28;20456;-49
2021/06/17 03:34:34;;;;;;;9.83;8.93;;;20.90;75.00;;;;;;5018396;28;20444;-49
2021/06/17 03:37:01;;;;;;;12.60;8.53;;;20.90;75.00;;;;;;5007544;28;20459;-49
2021/06/17 03:39:30;;;;;;;9.70;8.80;;;20.90;75.00;;;;;;5019303;28;20471;-49
2021/06/17 03:42:00;;;;;;;8.77;7.93;;;20.90;75.10;;;;;;5006370;28;20456;-49
2021/06/17 03:44:28;;;;;;;9.23;8.00;;;20.90;75.20;;;;;;5017591;28;20459;-49
2021/06/17 03:46:58;;;;;;;9.87;8.77;;;21.00;75.10;;;;;;5024942;28;20473;-49
2021/06/17 03:49:26;;;;;;;10.27;8.03;;;20.90;75.20;;;;;;5023045;28;20483;-49
2021/06/17 03:51:53;;;;;;;9.50;8.60;;;20.90;75.20;;;;;;5020986;28;20474;-49
2021/06/17 03:54:24;;;;;;;8.03;7.23;;;20.90;75.30;;;;;;5006781;28;20459;-49
2021/06/17 03:56:57;;;;;;;9.10;8.00;;;20.90;75.30;;;;;;5020484;28;20466;-49
2021/06/17 03:59:26;;;;;;;9.73;8.60;;;20.90;75.40;;;;;;5008749;28;20478;-49
2021/06/17 04:01:55;;;;;;;10.27;9.17;;;20.90;75.40;;;;;;5019824;28;20934;-49
2021/06/17 04:04:25;;;;;;;9.43;8.30;;;20.90;75.50;;;;;;5021404;28;20452;-49
2021/06/17 04:06:59;;;;;;;8.80;7.97;;;20.90;75.50;;;;;;5022326;28;20981;-49
2021/06/17 04:09:32;;;;;;;9.50;8.60;;;20.90;75.60;;;;;;5019583;28;20491;-49
2021/06/17 04:12:11;;;;;;;10.40;9.30;;;20.90;75.60;;;;;;5005062;28;20459;-49
2021/06/17 04:14:40;;;;;;;9.87;8.97;;;21.00;75.70;;;;;;5018346;28;20464;-49
2021/06/17 04:17:10;;;;;;;10.60;8.60;;;21.10;75.40;;;;;;5005796;28;20466;-48
2021/06/17 04:19:40;;;;;;;12.23;9.43;;;21.10;75.20;;;;;;5019827;28;20506;-49
2021/06/17 04:22:09;;;;;;;10.43;9.53;;;21.10;75.20;;;;;;5023586;28;20977;-48
2021/06/17 04:24:41;;;;;;;16.73;10.07;;;21.10;75.40;;;;;;5022996;28;20462;-48
2021/06/17 04:27:09;;;;;;;9.73;8.80;;;21.00;75.60;;;;;;5007579;28;20592;-49
2021/06/17 04:29:39;;;;;;;9.23;8.33;;;21.10;75.50;;;;;;5026405;28;20490;-48
2021/06/17 04:32:08;;;;;;;10.73;9.10;;;21.20;75.40;;;;;;5027682;28;20839;-48
2021/06/17 04:34:38;;;;;;;9.83;8.40;;;21.10;75.50;;;;;;5023056;28;20474;-48
2021/06/17 04:37:09;;;;;;;10.23;9.10;;;21.10;75.60;;;;;;5024885;28;20828;-48
2021/06/17 04:39:36;;;;;;;9.30;8.40;;;21.10;75.70;;;;;;5023636;28;20456;-48
2021/06/17 04:42:04;;;;;;;9.43;8.50;;;21.10;75.80;;;;;;5010813;28;20456;-48
2021/06/17 04:44:31;;;;;;;8.97;8.07;;;21.10;76.00;;;;;;5024271;28;20459;-48
2021/06/17 04:46:59;;;;;;;15.97;9.60;;;21.20;76.10;;;;;;5022862;28;20945;-49
2021/06/17 04:49:29;;;;;;;9.83;8.93;;;21.20;76.10;;;;;;5023957;28;20906;-49
2021/06/17 04:51:57;;;;;;;11.70;9.53;;;21.30;76.10;;;;;;5023121;28;20833;-49
2021/06/17 04:54:24;;;;;;;10.03;9.03;;;21.40;75.90;;;;;;5024926;28;20453;-49
2021/06/17 04:56:51;;;;;;;10.87;9.77;;;21.40;75.80;;;;;;5024661;28;20478;-48
2021/06/17 04:59:18;;;;;;;9.77;8.87;;;21.50;75.60;;;;;;5026985;28;20463;-48
2021/06/17 05:01:45;;;;;;;10.10;8.00;;;21.50;75.50;;;;;;5022272;28;20455;-49
2021/06/17 05:04:12;;;;;;;12.10;9.50;;;21.60;75.80;;;;;;5008119;28;20903;-49
2021/06/17 05:06:41;;;;;;;9.90;8.90;;;21.70;75.90;;;;;;5024577;28;20464;-48
2021/06/17 05:11:53;;;;;;;9.77;8.40;;;21.90;74.80;;;;;;5026121;28;20465;-48
2021/06/17 05:14:20;;;;;;;9.73;8.73;;;21.90;74.80;;;;;;5021702;28;20822;-48
2021/06/17 05:16:47;;;;;;;12.33;8.30;;;22.00;74.90;;;;;;5026317;28;20938;-48
2021/06/17 05:19:15;;;;;;;10.90;9.80;;;22.10;75.10;;;;;;5023571;28;20483;-49
2021/06/17 05:21:43;;;;;;;11.67;9.40;;;22.20;74.50;;;;;;5024904;28;20475;-48
2021/06/17 05:24:10;;;;;;;10.20;9.27;;;22.20;73.90;;;;;;5020901;28;20505;-47
2021/06/17 05:26:37;;;;;;;11.23;8.90;;;22.30;73.40;;;;;;5023609;28;20459;-47
2021/06/17 05:29:04;;;;;;;9.57;8.57;;;22.30;73.30;;;;;;5006492;28;20492;-47
2021/06/17 05:31:31;;;;;;;10.07;9.10;;;22.40;73.10;;;;;;5020549;28;20458;-48
2021/06/17 05:33:58;;;;;;;10.40;9.20;;;22.50;72.20;;;;;;5017242;28;20487;-47
2021/06/17 05:36:26;;;;;;;13.00;9.53;;;22.60;72.20;;;;;;5022123;28;20464;-48
2021/06/17 05:38:53;;;;;;;9.10;8.20;;;22.70;71.90;;;;;;5009307;28;20464;-48
2021/06/17 05:41:19;;;;;;;9.57;8.03;;;22.80;71.10;;;;;;5023622;28;20470;-48
2021/06/17 05:43:46;;;;;;;10.53;8.80;;;22.90;71.00;;;;;;5008004;28;20475;-48
2021/06/17 05:46:13;;;;;;;8.33;7.50;;;22.90;70.90;;;;;;5004580;28;20542;-48
2021/06/17 05:48:41;;;;;;;9.83;8.30;;;23.00;70.20;;;;;;5023550;28;20499;-48
2021/06/17 05:51:08;;;;;;;10.10;9.20;;;23.10;70.00;;;;;;5023653;28;20470;-48
2021/06/17 05:53:35;;;;;;;9.77;8.80;;;23.10;70.10;;;;;;5018786;28;20465;-48
2021/06/17 05:56:03;;;;;;;9.97;8.90;;;23.30;69.20;;;;;;5023932;28;20451;-49
2021/06/17 05:58:30;;;;;;;8.03;7.43;;;23.40;68.80;;;;;;5018559;28;21082;-49
2021/06/17 06:00:57;;;;;;;8.87;8.00;;;23.40;68.80;;;;;;5022155;28;20832;-48
2021/06/17 06:03:24;;;;;;;12.37;9.30;;;23.50;68.40;;;;;;5025850;28;20471;-48
2021/06/17 06:05:50;;;;;;;8.93;8.10;;;23.60;66.60;;;;;;5011842;28;20468;-49
2021/06/17 06:08:18;;;;;;;8.93;7.53;;;23.70;66.30;;;;;;5024291;28;20500;-49
2021/06/17 06:10:45;;;;;;;9.20;8.33;;;23.80;66.60;;;;;;5017189;28;20456;-49
2021/06/17 06:13:12;;;;;;;15.77;8.50;;;23.80;66.40;;;;;;5023536;28;20461;-49
2021/06/17 06:15:39;;;;;;;9.33;8.33;;;23.90;65.20;;;;;;5019095;28;20879;-49
2021/06/17 06:18:11;;;;;;;10.63;8.00;;;24.00;64.40;;;;;;5020066;28;20826;-49
2021/06/17 06:20:40;;;;;;;13.30;7.87;;;24.10;65.00;;;;;;5019947;28;20455;-49
2021/06/17 06:23:08;;;;;;;8.33;7.53;;;24.20;64.10;;;;;;5023660;28;20470;-49
2021/06/17 06:25:36;;;;;;;9.63;8.43;;;24.30;63.70;;;;;;5022250;28;20465;-49
2021/06/17 06:28:03;;;;;;;8.63;7.70;;;24.40;64.10;;;;;;5018436;28;20464;-49
2021/06/17 06:30:31;;;;;;;11.10;8.27;;;24.50;64.90;;;;;;5022303;28;20467;-49
2021/06/17 06:32:58;;;;;;;9.27;7.43;;;24.60;63.70;;;;;;5006309;28;20463;-49
2021/06/17 06:35:25;;;;;;;9.30;7.43;;;24.70;63.40;;;;;;5019373;28;20470;-49
2021/06/17 06:37:52;;;;;;;9.90;8.10;;;24.80;63.30;;;;;;5017885;28;20813;-49
2021/06/17 06:40:23;;;;;;;9.63;7.43;;;24.90;62.70;;;;;;5023095;28;20467;-49
2021/06/17 06:42:50;;;;;;;8.63;7.50;;;25.00;62.80;;;;;;5018030;28;20452;-49
2021/06/17 06:45:17;;;;;;;10.67;7.67;;;25.10;63.10;;;;;;5023128;28;20812;-48
2021/06/17 06:47:43;;;;;;;8.00;7.20;;;25.20;63.20;;;;;;5017161;28;20453;-48
2021/06/17 06:50:11;;;;;;;7.47;6.87;;;25.30;63.40;;;;;;5004001;28;20488;-49
2021/06/17 06:52:39;;;;;;;7.70;7.00;;;25.50;62.50;;;;;;5019695;28;20456;-49
2021/06/17 06:55:07;;;;;;;8.17;7.20;;;25.50;62.20;;;;;;5025425;28;20455;-48
2021/06/17 06:57:35;;;;;;;14.13;7.77;;;25.70;61.20;;;;;;5021245;28;20960;-48
2021/06/17 07:00:04;;;;;;;10.00;7.27;;;25.80;60.50;;;;;;5021652;28;20839;-48
2021/06/17 07:02:33;;;;;;;11.90;7.40;;;25.90;60.20;;;;;;5024939;28;20452;-48
2021/06/17 07:05:01;;;;;;;8.00;6.70;;;26.10;59.20;;;;;;5021188;28;20461;-48
2021/06/17 07:07:28;;;;;;;8.47;6.50;;;26.20;58.50;;;;;;5021226;28;20447;-49
2021/06/17 07:09:54;;;;;;;8.43;7.53;;;26.40;57.60;;;;;;5023398;28;20491;-49
2021/06/17 07:12:22;;;;;;;9.40;6.83;;;26.50;57.20;;;;;;5022443;28;20753;-48
2021/06/17 07:14:49;;;;;;;9.70;7.27;;;26.70;56.50;;;;;;5023449;28;20482;-49
2021/06/17 07:17:16;;;;;;;10.37;6.43;;;26.80;56.50;;;;;;5022600;28;20447;-48
2021/06/17 07:19:43;;;;;;;7.20;6.47;;;27.00;55.90;;;;;;5017778;28;21322;-48
2021/06/17 07:22:10;;;;;;;9.20;6.30;;;27.10;55.40;;;;;;5023670;28;20517;-48
2021/06/17 07:24:38;;;;;;;6.97;6.27;;;27.30;54.80;;;;;;5020762;28;20470;-49
2021/06/17 07:27:05;;;;;;;6.93;6.23;;;27.40;55.20;;;;;;5024916;28;20451;-49
2021/06/17 07:29:32;;;;;;;9.30;6.63;;;27.50;54.80;;;;;;5018840;28;20494;-48
2021/06/17 07:31:59;;;;;;;8.37;7.47;;;27.70;54.80;;;;;;5015579;28;20439;-49
2021/06/17 07:34:25;;;;;;;6.97;6.37;;;27.80;54.70;;;;;;5018777;28;20466;-49
2021/06/17 07:36:53;;;;;;;8.90;6.67;;;28.00;54.20;;;;;;5021305;28;20454;-49
2021/06/17 07:39:20;;;;;;;8.20;7.17;;;28.10;53.90;;;;;;5019725;28;20459;-49
2021/06/17 07:41:50;;;;;;;7.77;6.97;;;28.20;53.60;;;;;;5016486;28;20505;-49
2021/06/17 07:44:17;;;;;;;11.70;6.17;;;28.40;53.10;;;;;;5018482;28;20809;-49
2021/06/17 07:46:44;;;;;;;7.00;6.40;;;28.50;51.80;;;;;;5018854;28;20459;-50
2021/06/17 07:49:11;;;;;;;9.80;6.40;;;28.60;51.80;;;;;;5018135;28;20759;-50
2021/06/17 07:51:38;;;;;;;8.53;6.73;;;28.70;51.60;;;;;;5017120;28;20451;-50
2021/06/17 07:54:05;;;;;;;18.30;7.40;;;28.80;51.30;;;;;;5007268;28;20231;-50
2021/06/17 07:56:32;;;;;;;7.03;6.40;;;28.90;51.50;;;;;;5020532;28;20465;-50
2021/06/17 07:59:01;;;;;;;7.70;6.90;;;28.90;51.20;;;;;;5007923;28;20205;-50
2021/06/17 08:01:29;;;;;;;5.87;5.37;;;29.10;50.00;;;;;;5023906;28;20210;-50
2021/06/17 08:03:56;;;;;;;8.30;5.90;;;29.20;49.70;;;;;;5021656;28;20688;-49
2021/06/17 08:06:23;;;;;;;7.23;6.40;;;29.30;50.50;;;;;;5021404;28;20214;-49
2021/06/17 08:08:49;;;;;;;6.40;5.80;;;29.40;49.60;;;;;;5023332;28;20235;-49
2021/06/17 08:11:16;;;;;;;7.10;6.40;;;29.50;48.00;;;;;;5023175;28;20227;-49
2021/06/17 08:14:04;;;;;;;8.10;5.67;;;29.60;47.80;;;;;;5011233;28;20209;-49
2021/06/17 08:16:30;;;;;;;7.10;6.40;;;29.70;47.60;;;;;;5020919;28;20200;-49
2021/06/17 08:18:57;;;;;;;7.40;6.00;;;29.70;47.70;;;;;;5022754;28;20228;-49
2021/06/17 08:21:24;;;;;;;6.45;5.78;;;29.80;48.10;;;;;;5019770;28;20216;-49
2021/06/17 08:23:54;;;;;;;6.63;5.88;;;30.00;48.50;;;;;;5017989;28;20223;-49
2021/06/17 08:26:22;;;;;;;8.70;6.40;;;30.10;47.90;;;;;;5025443;28;20248;-50
2021/06/17 08:28:49;;;;;;;7.00;6.07;;;30.20;47.70;;;;;;5021959;28;20243;-49
2021/06/17 08:31:16;;;;;;;7.28;5.65;;;30.30;47.70;;;;;;5020096;28;20215;-50
2021/06/17 08:33:45;;;;;;;5.83;5.30;;;30.40;47.50;;;;;;5022652;28;20205;-49
2021/06/17 08:36:11;;;;;;;6.60;6.00;;;30.50;48.10;;;;;;5019874;28;20219;-50
2021/06/17 08:38:39;;;;;;;8.38;6.10;;;30.60;47.90;;;;;;5022273;28;20656;-49
2021/06/17 08:41:06;;;;;;;6.47;5.82;;;30.60;48.20;;;;;;5021273;28;20217;-50
2021/06/17 08:43:48;;;;;;;7.45;6.63;;;30.60;47.80;;;;;;5023734;28;20627;-49
2021/06/17 08:46:15;;;;;;;7.60;6.78;;;30.50;48.60;;;;;;5026383;28;20204;-50
2021/06/17 08:48:41;;;;;;;9.60;6.65;;;30.40;49.10;;;;;;5021686;28;20240;-50
2021/06/17 08:51:09;;;;;;;7.72;6.47;;;30.40;49.20;;;;;;5008985;28;20220;-49
2021/06/17 08:53:35;;;;;;;9.07;6.30;;;30.30;49.10;;;;;;5023676;28;20204;-49
2021/06/17 08:56:05;;;;;;;7.55;6.63;;;30.30;49.00;;;;;;5019679;28;20201;-50
2021/06/17 08:58:32;;;;;;;9.35;7.32;;;30.40;49.50;;;;;;5022978;28;20562;-50
2021/06/17 09:00:58;;;;;;;7.65;6.85;;;30.50;49.70;;;;;;4997607;28;20541;-49
2021/06/17 09:03:25;;;;;;;10.75;6.72;;;30.50;49.30;;;;;;5020379;28;20205;-49
2021/06/17 09:05:55;;;;;;;7.05;6.35;;;30.70;49.20;;;;;;5020356;28;20661;-49
2021/06/17 09:08:27;;;;;;;6.78;6.25;;;30.80;49.00;;;;;;5020310;28;20205;-50
2021/06/17 09:10:54;;;;;;;7.25;6.55;;;30.90;49.00;;;;;;5020730;28;20225;-50
2021/06/17 09:13:28;;;;;;;7.65;6.97;;;30.90;48.70;;;;;;5006697;28;20204;-50
2021/06/17 09:15:55;;;;;;;7.70;6.18;;;31.00;48.60;;;;;;5003168;28;20196;-50
2021/06/17 09:18:30;;;;;;;8.40;6.88;;;31.00;48.20;;;;;;5018439;28;20228;-49
2021/06/17 09:21:04;;;;;;;6.53;5.93;;;31.10;48.60;;;;;;5022287;28;20306;-50
2021/06/17 09:23:36;;;;;;;7.70;7.00;;;31.30;48.40;;;;;;5006279;28;20204;-50
2021/06/17 09:26:06;;;;;;;6.90;6.30;;;31.50;48.00;;;;;;5020113;28;20208;-50
2021/06/17 09:29:05;;;;;;;11.10;6.80;;;31.80;47.40;;;;;;5021818;28;20204;-50
2021/06/17 09:31:33;;;;;;;7.35;6.75;;;32.10;47.30;;;;;;5005456;28;20223;-50
2021/06/17 09:34:02;;;;;;;9.73;6.57;;;32.40;46.60;;;;;;5026207;28;20639;-50
2021/06/17 09:36:31;;;;;;;9.05;6.78;;;32.80;45.90;;;;;;5021367;28;20216;-50
2021/06/17 09:39:03;;;;;;;8.98;8.07;;;33.30;45.30;;;;;;5022961;28;20303;-50
2021/06/17 09:41:37;;;;;;;8.00;7.25;;;33.80;44.80;;;;;;5019118;28;20588;-50
2021/06/17 09:44:06;;;;;;;7.45;6.75;;;34.20;44.00;;;;;;5005670;28;20204;-49
2021/06/17 09:46:33;;;;;;;7.45;6.78;;;34.50;43.50;;;;;;5023164;28;20213;-49
2021/06/17 09:49:06;;;;;;;8.25;7.38;;;34.70;42.70;;;;;;5025051;28;20204;-49
2021/06/17 09:51:44;;;;;;;9.02;7.53;;;34.90;42.80;;;;;;5019827;28;20633;-49
2021/06/17 09:54:25;;;;;;;8.13;6.72;;;35.00;42.40;;;;;;5022297;28;20200;-49
2021/06/17 09:56:57;;;;;;;10.15;7.75;;;34.90;42.80;;;;;;5021952;28;20208;-49
2021/06/17 09:59:46;;;;;;;8.32;7.57;;;34.70;43.30;;;;;;5018906;28;20208;-51
2021/06/17 10:02:21;;;;;;;8.68;6.95;;;34.50;43.60;;;;;;5024401;28;20208;-49
2021/06/17 10:04:48;;;;;;;8.07;7.30;;;34.30;43.80;;;;;;5020726;28;20220;-50
2021/06/17 10:07:18;;;;;;;9.40;8.40;;;34.20;44.30;;;;;;5021444;28;20437;-48
2021/06/17 10:09:46;;;;;;;9.80;8.48;;;34.00;44.40;;;;;;5024640;28;20225;-49
2021/06/17 10:12:14;;;;;;;8.48;7.68;;;33.90;44.50;;;;;;5019823;28;20648;-50
2021/06/17 10:14:41;;;;;;;8.68;7.45;;;33.80;44.60;;;;;;5007549;28;20472;-50
2021/06/17 10:17:08;;;;;;;8.82;7.95;;;33.60;44.70;;;;;;5023187;28;20211;-49
2021/06/17 10:19:35;;;;;;;9.50;7.85;;;33.40;44.80;;;;;;5019692;28;20220;-50
2021/06/17 10:22:03;;;;;;;11.88;8.85;;;33.20;45.40;;;;;;5026020;28;20612;-50
2021/06/17 10:24:35;;;;;;;9.05;7.47;;;33.00;45.80;;;;;;5004058;28;20564;-49
2021/06/17 10:27:33;;;;;;;9.27;7.75;;;32.90;46.20;;;;;;5020471;28;20671;-50
2021/06/17 10:30:07;;;;;;;8.13;7.50;;;32.70;46.40;;;;;;5019227;28;20225;-50
2021/06/17 10:32:57;;;;;;;10.40;8.75;;;32.60;46.70;;;;;;5020519;28;20200;-50
2021/06/17 10:35:28;;;;;;;9.27;8.23;;;32.50;46.90;;;;;;5022661;28;20218;-49
2021/06/17 10:38:04;;;;;;;8.70;7.90;;;32.50;46.70;;;;;;5020052;28;20200;-50
2021/06/17 10:40:33;;;;;;;8.73;7.82;;;32.30;48.30;;;;;;5015665;28;20208;-49
2021/06/17 10:43:00;;;;;;;9.30;8.40;;;32.10;47.80;;;;;;5022811;28;20579;-50
2021/06/17 10:45:37;;;;;;;9.63;7.80;;;32.00;48.30;;;;;;5019561;28;20216;-49
2021/06/17 10:48:06;;;;;;;10.45;8.85;;;32.00;48.10;;;;;;5005930;28;20231;-49
2021/06/17 10:50:49;;;;;;;9.75;8.85;;;31.90;48.40;;;;;;5002594;28;20778;-49
2021/06/17 10:53:33;;;;;;;8.90;7.82;;;31.90;48.70;;;;;;5022260;28;20735;-49
2021/06/17 10:56:19;;;;;;;10.27;8.60;;;31.70;49.00;;;;;;5020242;28;20196;-48
2021/06/17 10:58:46;;;;;;;9.07;8.20;;;31.70;49.30;;;;;;5021952;28;20204;-49
2021/06/17 11:01:26;;;;;;;9.88;7.45;;;31.70;50.10;;;;;;5018577;28;20212;-49
2021/06/17 11:04:08;;;;;;;8.65;7.85;;;31.70;49.60;;;;;;5019391;28;20266;-50
2021/06/17 11:06:56;;;;;;;9.88;8.98;;;31.70;49.50;;;;;;5018266;28;20211;-49
2021/06/17 11:09:43;;;;;;;13.35;9.63;;;31.70;49.70;;;;;;5024460;28;20212;-49
2021/06/17 11:12:13;;;;;;;10.65;8.85;;;31.70;49.90;;;;;;5019767;28;20210;-50
2021/06/17 11:14:41;;;;;;;9.55;8.63;;;31.60;50.10;;;;;;5000477;28;20212;-50
2021/06/17 11:17:30;;;;;;;11.88;9.43;;;31.60;50.00;;;;;;5019731;28;20295;-49
2021/06/17 11:20:16;;;;;;;9.38;8.45;;;31.60;49.90;;;;;;5020129;28;20207;-49
2021/06/17 11:22:50;;;;;;;9.63;8.70;;;31.60;50.40;;;;;;5018183;28;20567;-49
2021/06/17 11:25:17;;;;;;;9.45;8.68;;;31.60;50.30;;;;;;5014642;28;20204;-49
2021/06/17 11:28:00;;;;;;;10.77;9.77;;;31.60;50.30;;;;;;5005528;28;20599;-49
2021/06/17 11:30:42;;;;;;;9.05;8.25;;;31.60;50.10;;;;;;5017300;28;20224;-49
2021/06/17 11:33:14;;;;;;;11.00;8.40;;;31.60;49.90;;;;;;5022175;28;20693;-49
2021/06/17 11:35:50;;;;;;;8.85;8.15;;;31.60;50.10;;;;;;5022080;28;20675;-49
2021/06/17 11:38:31;;;;;;;10.10;9.15;;;31.70;50.50;;;;;;4991670;28;20211;-49
2021/06/17 11:41:00;;;;;;;10.63;8.45;;;31.70;49.20;;;;;;5019378;28;20210;-49
2021/06/17 11:43:28;;;;;;;11.02;9.23;;;31.70;49.20;;;;;;5017862;28;20212;-49
2021/06/17 11:45:56;;;;;;;10.27;8.60;;;31.70;49.80;;;;;;5020857;28;20208;-49
2021/06/17 11:48:25;;;;;;;10.25;9.05;;;31.80;49.50;;;;;;5019982;28;20219;-49
2021/06/17 11:50:54;;;;;;;10.10;8.60;;;31.80;49.50;;;;;;5015744;28;20307;-49
2021/06/17 11:53:26;;;;;;;8.93;8.23;;;31.90;49.10;;;;;;5022864;28;20208;-49
2021/06/17 11:55:57;;;;;;;9.00;8.20;;;31.90;49.30;;;;;;5022847;28;20212;-49
2021/06/17 11:58:28;;;;;;;8.85;8.15;;;31.90;49.30;;;;;;5020856;28;20200;-49
2021/06/17 12:00:57;;;;;;;9.43;8.50;;;32.00;49.20;;;;;;5015371;28;20213;-48
2021/06/17 12:03:25;;;;;;;10.43;9.25;;;32.00;49.10;;;;;;5023219;28;20218;-50
2021/06/17 12:06:13;;;;;;;8.40;7.70;;;32.00;48.10;;;;;;5023305;28;20211;-49
2021/06/17 12:08:40;;;;;;;10.18;8.63;;;31.90;48.20;;;;;;5018789;28;20551;-49
2021/06/17 12:11:20;;;;;;;9.70;8.80;;;31.90;48.00;;;;;;5018670;28;20310;-49
2021/06/17 12:13:51;;;;;;;9.50;8.60;;;31.90;48.30;;;;;;5017511;28;20207;-49
2021/06/17 12:16:19;;;;;;;10.45;9.45;;;32.00;48.20;;;;;;5016778;28;20255;-49
2021/06/17 12:18:49;;;;;;;9.15;8.07;;;32.00;47.80;;;;;;5021225;28;20235;-49
2021/06/17 12:21:29;;;;;;;9.63;7.82;;;32.10;47.80;;;;;;5016525;28;20713;-49
2021/06/17 12:23:57;;;;;;;8.75;8.05;;;32.10;48.10;;;;;;5019072;28;20212;-50
2021/06/17 12:26:33;;;;;;;10.52;8.77;;;32.10;48.60;;;;;;5020625;28;20621;-50
2021/06/17 12:29:09;;;;;;;8.50;7.13;;;32.20;48.60;;;;;;4998003;28;20223;-50
2021/06/17 12:31:39;;;;;;;9.27;8.38;;;32.20;48.30;;;;;;5014196;28;20568;-49
2021/06/17 12:34:13;;;;;;;8.85;8.00;;;32.20;48.10;;;;;;5015800;28;21540;-49
2021/06/17 12:36:41;;;;;;;11.88;9.48;;;32.20;46.80;;;;;;5021749;28;20297;-49
2021/06/17 12:39:14;;;;;;;10.70;8.25;;;32.30;47.30;;;;;;5019688;28;20681;-49
2021/06/17 12:41:43;;;;;;;9.02;8.13;;;32.40;47.50;;;;;;5018679;28;20204;-49
2021/06/17 12:44:25;;;;;;;8.88;7.78;;;32.40;47.20;;;;;;5010464;28;20258;-49
2021/06/17 12:46:56;;;;;;;9.82;8.93;;;32.40;47.10;;;;;;5025560;28;20718;-49
2021/06/17 12:52:03;;;;;;;9.40;8.50;;;32.40;47.40;;;;;;5020601;28;20221;-49
2021/06/17 12:54:35;;;;;;;8.45;7.75;;;32.50;46.60;;;;;;5023424;28;20214;-49
2021/06/17 12:57:04;;;;;;;9.68;8.88;;;32.50;46.90;;;;;;5019725;28;20200;-49
2021/06/17 12:59:48;;;;;;;8.27;7.45;;;32.50;46.40;;;;;;5021725;28;20212;-50
2021/06/17 13:02:20;;;;;;;8.50;7.70;;;32.60;46.70;;;;;;5021694;28;20577;-49
2021/06/17 13:05:12;;;;;;;9.50;8.48;;;32.60;45.80;;;;;;5021945;28;20219;-49
2021/06/17 13:07:57;;;;;;;8.45;7.65;;;32.60;45.60;;;;;;5022712;28;20304;-49